createdAt,value
2022-10-31T00:02:30.505Z,101279.11
2022-10-31T00:07:53.129Z,101272.13
2022-10-31T00:13:16.283Z,101271.27
2022-10-31T00:18:38.464Z,101272.13
2022-10-31T00:24:01.674Z,101269.18
2022-10-31T00:29:24.180Z,101273.42
2022-10-31T00:34:46.312Z,101266.90
2022-10-31T00:40:08.580Z,101265.49
2022-10-31T00:45:31.003Z,101267.91
2022-10-31T00:50:53.520Z,101268.88
2022-10-31T00:56:15.742Z,101274.62
2022-10-31T01:01:38.015Z,101276.81
2022-10-31T01:07:00.889Z,101292.85
2022-10-31T01:12:23.199Z,101286.90
2022-10-31T01:17:45.723Z,101286.90
2022-10-31T01:23:07.887Z,101282.80
2022-10-31T01:28:30.038Z,101286.81
2022-10-31T01:33:52.858Z,101283.55
2022-10-31T01:39:20.725Z,101284.70
2022-10-31T01:44:47.768Z,101289.11
2022-10-31T01:50:15.235Z,101280.41
2022-10-31T01:55:55.886Z,101279.44
2022-10-31T02:01:19.353Z,101273.48
2022-10-31T02:06:49.661Z,101284.21
2022-10-31T02:12:13.355Z,101278.75
2022-10-31T02:17:36.361Z,101278.75
2022-10-31T02:23:30.028Z,101283.16
2022-10-31T02:29:19.413Z,101284.60
2022-10-31T02:35:02.069Z,101289.31
2022-10-31T02:40:34.615Z,101301.76
2022-10-31T02:46:20.352Z,101288.45
2022-10-31T02:51:43.021Z,101297.36
2022-10-31T02:57:12.295Z,101295.33
2022-10-31T03:03:07.453Z,101297.25
2022-10-31T03:14:16.917Z,101299.06
2022-10-31T03:19:54.873Z,101302.63
2022-10-31T03:25:19.106Z,101304.23
2022-10-31T03:30:41.452Z,101316.13
2022-10-31T03:36:07.349Z,101316.03
2022-10-31T03:41:36.186Z,101310.20
2022-10-31T03:46:59.634Z,101319.97
2022-10-31T03:52:50.972Z,101314.50
2022-10-31T03:58:33.832Z,101314.70
2022-10-31T04:03:58.203Z,101316.79
2022-10-31T04:09:23.290Z,101310.56
2022-10-31T04:14:49.517Z,101319.77
2022-10-31T04:20:15.638Z,101315.93
2022-10-31T04:25:38.742Z,101309.91
2022-10-31T04:31:01.032Z,101316.70
2022-10-31T04:36:23.327Z,101313.31
2022-10-31T04:41:45.459Z,101317.16
2022-10-31T04:47:07.974Z,101318.47
2022-10-31T04:52:30.571Z,101319.17
2022-10-31T04:57:56.565Z,101321.05
2022-10-31T05:03:18.887Z,101320.03
2022-10-31T05:08:41.193Z,101312.91
2022-10-31T05:14:03.386Z,101326.42
2022-10-31T05:19:26.256Z,101321.35
2022-10-31T05:24:48.394Z,101324.30
2022-10-31T05:30:10.828Z,101329.59
2022-10-31T05:35:39.014Z,101327.83
2022-10-31T05:41:04.226Z,101342.10
2022-10-31T05:46:26.430Z,101342.89
2022-10-31T05:51:48.631Z,101345.67
2022-10-31T05:57:10.854Z,101346.80
2022-10-31T06:02:35.682Z,101345.93
2022-10-31T06:07:58.365Z,101351.96
2022-10-31T06:13:21.103Z,101358.13
2022-10-31T06:18:43.727Z,101362.52
2022-10-31T06:24:05.930Z,101376.80
2022-10-31T06:29:28.077Z,101380.78
2022-10-31T06:34:50.384Z,101381.64
2022-10-31T06:40:12.884Z,101375.23
2022-10-31T06:45:35.036Z,101382.63
2022-10-31T06:50:59.730Z,101375.55
2022-10-31T06:56:22.555Z,101379.28
2022-10-31T07:01:45.461Z,101383.88
2022-10-31T07:07:09.368Z,101395.46
2022-10-31T07:12:31.514Z,101401.23
2022-10-31T07:17:53.657Z,101406.86
2022-10-31T07:23:17.410Z,101402.32
2022-10-31T07:28:40.346Z,101408.90
2022-10-31T07:34:02.523Z,101414.77
2022-10-31T07:39:25.081Z,101419.17
2022-10-31T07:44:47.237Z,101422.14
2022-10-31T07:50:09.808Z,101430.19
2022-10-31T07:55:33.089Z,101439.00
2022-10-31T08:00:57.619Z,101443.06
2022-10-31T08:06:20.441Z,101444.48
2022-10-31T08:11:42.597Z,101447.17
2022-10-31T08:17:06.117Z,101444.39
2022-10-31T08:22:28.453Z,101447.56
2022-10-31T08:27:51.657Z,101443.86
2022-10-31T08:33:25.808Z,101442.26
2022-10-31T08:38:48.395Z,101444.17
2022-10-31T08:44:10.625Z,101454.36
2022-10-31T08:49:32.802Z,101451.53
2022-10-31T08:54:54.968Z,101434.94
2022-10-31T09:00:18.163Z,101438.98
2022-10-31T09:05:41.119Z,101441.77
2022-10-31T09:11:04.133Z,101442.82
2022-10-31T09:16:26.447Z,101441.11
2022-10-31T09:21:49.122Z,101447.44
2022-10-31T09:27:12.292Z,101461.25
2022-10-31T09:32:34.430Z,101465.47
2022-10-31T09:38:06.570Z,101474.22
2022-10-31T09:44:05.489Z,101473.25
2022-10-31T09:49:32.675Z,101470.17
2022-10-31T09:55:14.762Z,101473.85
2022-10-31T10:00:38.067Z,101480.83
2022-10-31T10:06:30.988Z,101473.94
2022-10-31T10:12:16.355Z,101482.00
2022-10-31T10:17:52.466Z,101480.46
2022-10-31T10:23:40.161Z,101476.81
2022-10-31T10:29:07.665Z,101478.27
2022-10-31T10:34:43.653Z,101475.75
2022-10-31T10:40:10.678Z,101467.59
2022-10-31T10:45:52.133Z,101474.13
2022-10-31T10:51:25.744Z,101455.39
2022-10-31T10:57:09.969Z,101477.27
2022-10-31T11:02:48.861Z,101481.70
2022-10-31T11:08:11.292Z,101474.69
2022-10-31T11:13:36.912Z,101461.42
2022-10-31T11:19:01.723Z,101453.84
2022-10-31T11:24:31.080Z,101442.23
2022-10-31T11:29:58.307Z,101447.03
2022-10-31T11:35:20.848Z,101454.52
2022-10-31T11:40:44.834Z,101459.90
2022-10-31T11:46:07.884Z,101451.34
2022-10-31T11:51:39.403Z,101461.28
2022-10-31T11:57:02.019Z,101467.86
2022-10-31T12:02:30.487Z,101467.86
2022-10-31T12:07:52.709Z,101470.73
2022-10-31T12:13:25.667Z,101464.57
2022-10-31T12:18:58.253Z,101458.16
2022-10-31T12:24:34.398Z,101465.53
2022-10-31T12:30:18.016Z,101455.91
2022-10-31T12:35:57.353Z,101453.81
2022-10-31T12:41:41.364Z,101449.88
2022-10-31T12:47:17.091Z,101451.96
2022-10-31T12:58:44.168Z,101444.75
2022-10-31T13:04:45.850Z,101446.98
2022-10-31T13:10:30.939Z,101448.80
2022-10-31T13:16:28.170Z,101432.42
2022-10-31T13:22:11.844Z,101431.95
2022-10-31T13:27:51.044Z,101429.48
2022-10-31T13:33:23.605Z,101431.31
2022-10-31T13:39:13.943Z,101428.02
2022-10-31T13:44:40.342Z,101436.47
2022-10-31T13:50:20.965Z,101431.52
2022-10-31T13:56:11.464Z,101421.62
2022-10-31T14:01:39.122Z,101425.64
2022-10-31T14:07:27.748Z,101422.84
2022-10-31T14:13:12.450Z,101427.61
2022-10-31T14:18:56.153Z,101420.91
2022-10-31T14:24:24.578Z,101415.17
2022-10-31T14:29:51.481Z,101417.97
2022-10-31T14:35:21.440Z,101413.13
2022-10-31T14:41:11.516Z,101410.02
2022-10-31T14:47:14.368Z,101407.33
2022-10-31T14:52:38.266Z,101420.88
2022-10-31T14:58:11.603Z,101429.59
2022-10-31T15:04:21.913Z,101422.59
2022-10-31T15:09:32.380Z,101425.08
2022-10-31T15:14:56.380Z,101434.39
2022-10-31T15:20:20.052Z,101431.92
2022-10-31T15:25:45.874Z,101430.95
2022-10-31T15:31:15.663Z,101432.78
2022-10-31T15:36:39.068Z,101435.58
2022-10-31T15:42:11.150Z,101436.44
2022-10-31T15:47:39.200Z,101434.61
2022-10-31T15:53:03.813Z,101439.88
2022-10-31T15:58:34.821Z,101446.12
2022-10-31T16:04:04.563Z,101443.32
2022-10-31T16:09:40.524Z,101438.84
2022-10-31T16:15:05.164Z,101445.83
2022-10-31T16:20:33.387Z,101451.96
2022-10-31T16:25:57.145Z,101449.16
2022-10-31T16:31:35.382Z,101444.65
2022-10-31T16:36:57.808Z,101448.09
2022-10-31T16:42:21.576Z,101452.61
2022-10-31T16:47:43.873Z,101453.58
2022-10-31T16:53:13.737Z,101457.23
2022-10-31T16:58:39.159Z,101460.89
2022-10-31T17:04:01.300Z,101451.10
2022-10-31T17:09:23.577Z,101454.76
2022-10-31T17:14:46.300Z,101452.28
2022-10-31T17:20:08.445Z,101450.53
2022-10-31T17:25:36.208Z,101456.77
2022-10-31T17:31:02.147Z,101457.55
2022-10-31T17:36:25.813Z,101453.03
2022-10-31T17:41:48.447Z,101462.14
2022-10-31T17:47:10.947Z,101445.08
2022-10-31T17:52:33.178Z,101441.59
2022-10-31T17:57:55.770Z,101440.84
2022-10-31T18:03:17.949Z,101447.30
2022-10-31T18:08:46.662Z,101446.33
2022-10-31T18:14:16.466Z,101452.45
2022-10-31T18:19:38.634Z,101448.05
2022-10-31T18:25:02.281Z,101448.91
2022-10-31T18:30:25.720Z,101438.84
2022-10-31T18:35:48.872Z,101436.80
2022-10-31T18:41:11.212Z,101435.08
2022-10-31T18:46:34.644Z,101441.59
2022-10-31T18:51:57.011Z,101435.25
2022-10-31T18:57:19.941Z,101446.80
2022-10-31T19:02:43.173Z,101438.62
2022-10-31T19:08:05.328Z,101443.25
2022-10-31T19:13:27.476Z,101437.87
2022-10-31T19:18:51.056Z,101436.33
2022-10-31T19:24:13.634Z,101441.70
2022-10-31T19:29:36.200Z,101438.05
2022-10-31T19:34:58.731Z,101432.67
2022-10-31T19:40:22.031Z,101422.78
2022-10-31T19:45:44.291Z,101422.78
2022-10-31T19:51:07.670Z,101419.05
2022-10-31T19:56:32.772Z,101416.36
2022-10-31T20:01:55.815Z,101421.73
2022-10-31T20:07:19.346Z,101417.33
2022-10-31T20:12:41.544Z,101413.45
2022-10-31T20:18:04.370Z,101407.68
2022-10-31T20:23:26.859Z,101408.33
2022-10-31T20:28:49.929Z,101407.46
2022-10-31T20:34:12.969Z,101392.41
2022-10-31T20:39:36.784Z,101396.70
2022-10-31T20:45:02.519Z,101396.81
2022-10-31T20:50:25.628Z,101406.71
2022-10-31T20:55:47.800Z,101404.77
2022-10-31T21:01:11.448Z,101411.02
2022-10-31T21:06:35.469Z,101407.36
2022-10-31T21:11:58.016Z,101413.59
2022-10-31T21:17:21.298Z,101407.46
2022-10-31T21:22:44.307Z,101398.53
2022-10-31T21:28:06.454Z,101402.09
2022-10-31T21:33:28.797Z,101406.50
2022-10-31T21:38:51.617Z,101400.25
2022-10-31T21:44:14.004Z,101411.02
2022-10-31T21:49:36.144Z,101405.52
2022-10-31T21:54:58.311Z,101395.63
2022-10-31T22:00:21.674Z,101388.23
2022-10-31T22:05:44.482Z,101395.23
2022-10-31T22:11:11.357Z,101386.41
2022-10-31T22:16:36.014Z,101381.10
2022-10-31T22:22:00.409Z,101379.27
2022-10-31T22:27:23.032Z,101368.63
2022-10-31T22:32:45.184Z,101365.94
2022-10-31T22:38:08.091Z,101358.73
2022-10-31T22:43:31.035Z,101352.30
2022-10-31T22:49:03.999Z,101355.96
2022-10-31T22:54:28.689Z,101349.80
2022-10-31T22:59:51.671Z,101357.00
2022-10-31T23:05:14.041Z,101349.69
2022-10-31T23:10:40.287Z,101352.37
2022-10-31T23:16:02.879Z,101356.89
2022-10-31T23:21:44.273Z,101355.06
2022-10-31T23:27:11.397Z,101348.08
2022-10-31T23:32:43.327Z,101340.98
2022-10-31T23:38:05.857Z,101346.14
2022-10-31T23:43:28.482Z,101334.73
2022-10-31T23:48:51.081Z,101329.36
2022-10-31T23:54:13.317Z,101319.47
2022-10-31T23:59:35.469Z,101320.43
